sensor_id;sensor_type;location;lat;lon;timestamp;P1;durP1;ratioP1;P2;durP2;ratioP2
15616;SDS011;7908;51.688;7.130;2023-02-15T00:00:17;26.87;;;16.53;;
15616;SDS011;7908;51.688;7.130;2023-02-15T00:02:47;26.40;;;16.07;;
15616;SDS011;7908;51.688;7.130;2023-02-15T00:05:16;28.13;;;16.17;;
15616;SDS011;7908;51.688;7.130;2023-02-15T00:07:46;31.43;;;16.53;;
15616;SDS011;7908;51.688;7.130;2023-02-15T00:10:15;29.33;;;15.90;;
15616;SDS011;7908;51.688;7.130;2023-02-15T00:12:44;32.57;;;17.30;;
15616;SDS011;7908;51.688;7.130;2023-02-15T00:15:13;29.53;;;17.13;;
15616;SDS011;7908;51.688;7.130;2023-02-15T00:17:41;27.87;;;16.47;;
15616;SDS011;7908;51.688;7.130;2023-02-15T00:20:10;27.70;;;15.93;;
15616;SDS011;7908;51.688;7.130;2023-02-15T00:22:39;33.13;;;18.37;;
15616;SDS011;7908;51.688;7.130;2023-02-15T00:25:09;29.67;;;15.67;;
15616;SDS011;7908;51.688;7.130;2023-02-15T00:27:38;27.53;;;15.10;;
15616;SDS011;7908;51.688;7.130;2023-02-15T00:30:07;25.67;;;15.90;;
15616;SDS011;7908;51.688;7.130;2023-02-15T00:32:37;28.07;;;16.30;;
15616;SDS011;7908;51.688;7.130;2023-02-15T00:35:05;31.13;;;17.73;;
15616;SDS011;7908;51.688;7.130;2023-02-15T00:37:35;27.37;;;16.27;;
15616;SDS011;7908;51.688;7.130;2023-02-15T00:40:07;26.07;;;15.13;;
15616;SDS011;7908;51.688;7.130;2023-02-15T00:42:38;34.03;;;18.20;;
15616;SDS011;7908;51.688;7.130;2023-02-15T00:45:07;27.67;;;16.73;;
15616;SDS011;7908;51.688;7.130;2023-02-15T00:47:38;29.07;;;17.10;;
15616;SDS011;7908;51.688;7.130;2023-02-15T00:50:08;28.47;;;16.67;;
15616;SDS011;7908;51.688;7.130;2023-02-15T00:52:37;26.67;;;15.50;;
15616;SDS011;7908;51.688;7.130;2023-02-15T00:55:06;28.20;;;15.57;;
15616;SDS011;7908;51.688;7.130;2023-02-15T00:57:36;26.70;;;16.13;;
15616;SDS011;7908;51.688;7.130;2023-02-15T01:00:06;29.67;;;15.10;;
15616;SDS011;7908;51.688;7.130;2023-02-15T01:02:35;27.70;;;16.70;;
15616;SDS011;7908;51.688;7.130;2023-02-15T01:05:04;23.83;;;14.03;;
15616;SDS011;7908;51.688;7.130;2023-02-15T01:07:33;28.03;;;15.33;;
15616;SDS011;7908;51.688;7.130;2023-02-15T01:10:02;29.30;;;15.47;;
15616;SDS011;7908;51.688;7.130;2023-02-15T01:12:31;26.43;;;14.80;;
15616;SDS011;7908;51.688;7.130;2023-02-15T01:15:01;23.10;;;14.67;;
15616;SDS011;7908;51.688;7.130;2023-02-15T01:17:30;28.87;;;16.67;;
15616;SDS011;7908;51.688;7.130;2023-02-15T01:19:59;28.80;;;15.97;;
15616;SDS011;7908;51.688;7.130;2023-02-15T01:22:28;28.67;;;17.23;;
15616;SDS011;7908;51.688;7.130;2023-02-15T01:24:57;30.10;;;17.83;;
15616;SDS011;7908;51.688;7.130;2023-02-15T01:27:25;26.40;;;16.37;;
15616;SDS011;7908;51.688;7.130;2023-02-15T01:29:56;30.40;;;18.97;;
15616;SDS011;7908;51.688;7.130;2023-02-15T01:32:27;33.47;;;18.00;;
15616;SDS011;7908;51.688;7.130;2023-02-15T01:34:55;29.60;;;18.10;;
15616;SDS011;7908;51.688;7.130;2023-02-15T01:37:24;29.30;;;17.43;;
15616;SDS011;7908;51.688;7.130;2023-02-15T01:39:53;30.60;;;16.73;;
15616;SDS011;7908;51.688;7.130;2023-02-15T01:42:21;31.67;;;16.97;;
15616;SDS011;7908;51.688;7.130;2023-02-15T01:44:52;27.37;;;17.03;;
15616;SDS011;7908;51.688;7.130;2023-02-15T01:47:23;28.87;;;17.63;;
15616;SDS011;7908;51.688;7.130;2023-02-15T01:50:00;32.20;;;17.87;;
15616;SDS011;7908;51.688;7.130;2023-02-15T01:52:33;25.07;;;15.90;;
15616;SDS011;7908;51.688;7.130;2023-02-15T01:55:04;28.33;;;16.43;;
15616;SDS011;7908;51.688;7.130;2023-02-15T01:57:36;34.07;;;18.57;;
15616;SDS011;7908;51.688;7.130;2023-02-15T02:00:06;28.40;;;16.03;;
15616;SDS011;7908;51.688;7.130;2023-02-15T02:02:36;34.83;;;19.60;;
15616;SDS011;7908;51.688;7.130;2023-02-15T02:05:06;35.30;;;17.10;;
15616;SDS011;7908;51.688;7.130;2023-02-15T02:07:36;34.67;;;17.70;;
15616;SDS011;7908;51.688;7.130;2023-02-15T02:10:10;33.43;;;17.70;;
15616;SDS011;7908;51.688;7.130;2023-02-15T02:12:40;34.20;;;16.77;;
15616;SDS011;7908;51.688;7.130;2023-02-15T02:15:12;31.30;;;17.40;;
15616;SDS011;7908;51.688;7.130;2023-02-15T02:17:49;30.90;;;17.47;;
15616;SDS011;7908;51.688;7.130;2023-02-15T02:20:41;36.50;;;20.33;;
15616;SDS011;7908;51.688;7.130;2023-02-15T02:23:30;32.50;;;18.27;;
15616;SDS011;7908;51.688;7.130;2023-02-15T02:35:27;31.57;;;16.70;;
15616;SDS011;7908;51.688;7.130;2023-02-15T02:38:03;33.90;;;16.50;;
15616;SDS011;7908;51.688;7.130;2023-02-15T02:40:41;31.07;;;16.00;;
15616;SDS011;7908;51.688;7.130;2023-02-15T02:43:18;37.40;;;20.00;;
15616;SDS011;7908;51.688;7.130;2023-02-15T02:45:50;28.70;;;18.03;;
15616;SDS011;7908;51.688;7.130;2023-02-15T02:48:25;35.03;;;18.57;;
15616;SDS011;7908;51.688;7.130;2023-02-15T02:50:58;36.17;;;19.03;;
15616;SDS011;7908;51.688;7.130;2023-02-15T02:53:27;36.07;;;19.33;;
15616;SDS011;7908;51.688;7.130;2023-02-15T02:55:58;35.33;;;18.57;;
15616;SDS011;7908;51.688;7.130;2023-02-15T02:58:33;29.33;;;17.63;;
15616;SDS011;7908;51.688;7.130;2023-02-15T03:01:08;31.53;;;17.43;;
15616;SDS011;7908;51.688;7.130;2023-02-15T03:03:42;34.70;;;18.40;;
15616;SDS011;7908;51.688;7.130;2023-02-15T03:06:15;33.03;;;17.93;;
15616;SDS011;7908;51.688;7.130;2023-02-15T03:08:48;35.83;;;19.53;;
15616;SDS011;7908;51.688;7.130;2023-02-15T03:11:18;31.73;;;17.93;;
15616;SDS011;7908;51.688;7.130;2023-02-15T03:13:49;30.10;;;17.37;;
15616;SDS011;7908;51.688;7.130;2023-02-15T03:16:18;28.60;;;16.60;;
15616;SDS011;7908;51.688;7.130;2023-02-15T03:18:57;29.27;;;17.07;;
15616;SDS011;7908;51.688;7.130;2023-02-15T03:21:31;35.67;;;19.57;;
15616;SDS011;7908;51.688;7.130;2023-02-15T03:24:04;34.43;;;16.90;;
15616;SDS011;7908;51.688;7.130;2023-02-15T03:26:37;31.83;;;18.33;;
15616;SDS011;7908;51.688;7.130;2023-02-15T03:29:08;30.97;;;15.57;;
15616;SDS011;7908;51.688;7.130;2023-02-15T03:31:40;29.97;;;16.23;;
15616;SDS011;7908;51.688;7.130;2023-02-15T03:34:14;30.23;;;16.67;;
15616;SDS011;7908;51.688;7.130;2023-02-15T03:36:45;32.63;;;15.97;;
15616;SDS011;7908;51.688;7.130;2023-02-15T03:39:18;29.07;;;15.90;;
15616;SDS011;7908;51.688;7.130;2023-02-15T03:41:55;29.23;;;16.57;;
15616;SDS011;7908;51.688;7.130;2023-02-15T03:44:27;31.83;;;15.87;;
15616;SDS011;7908;51.688;7.130;2023-02-15T03:47:03;31.90;;;16.03;;
15616;SDS011;7908;51.688;7.130;2023-02-15T03:49:43;32.63;;;16.47;;
15616;SDS011;7908;51.688;7.130;2023-02-15T03:52:14;32.80;;;16.43;;
15616;SDS011;7908;51.688;7.130;2023-02-15T03:54:44;28.10;;;14.77;;
15616;SDS011;7908;51.688;7.130;2023-02-15T03:57:15;27.30;;;15.17;;
15616;SDS011;7908;51.688;7.130;2023-02-15T04:00:04;28.47;;;15.63;;
15616;SDS011;7908;51.688;7.130;2023-02-15T04:03:02;32.10;;;17.27;;
15616;SDS011;7908;51.688;7.130;2023-02-15T04:05:38;30.70;;;16.23;;
15616;SDS011;7908;51.688;7.130;2023-02-15T04:08:07;32.70;;;16.40;;
15616;SDS011;7908;51.688;7.130;2023-02-15T04:10:36;32.73;;;16.20;;
15616;SDS011;7908;51.688;7.130;2023-02-15T04:13:19;33.70;;;18.23;;
15616;SDS011;7908;51.688;7.130;2023-02-15T04:15:48;28.43;;;15.87;;
15616;SDS011;7908;51.688;7.130;2023-02-15T04:18:33;28.10;;;16.50;;
15616;SDS011;7908;51.688;7.130;2023-02-15T04:21:22;30.83;;;16.27;;
15616;SDS011;7908;51.688;7.130;2023-02-15T04:24:10;26.90;;;15.83;;
15616;SDS011;7908;51.688;7.130;2023-02-15T04:26:56;31.20;;;16.17;;
15616;SDS011;7908;51.688;7.130;2023-02-15T04:29:28;29.33;;;15.93;;
15616;SDS011;7908;51.688;7.130;2023-02-15T04:31:58;36.23;;;18.33;;
15616;SDS011;7908;51.688;7.130;2023-02-15T04:34:28;29.70;;;16.80;;
15616;SDS011;7908;51.688;7.130;2023-02-15T04:36:58;30.90;;;16.30;;
15616;SDS011;7908;51.688;7.130;2023-02-15T04:39:26;28.07;;;15.77;;
15616;SDS011;7908;51.688;7.130;2023-02-15T04:41:55;31.37;;;17.63;;
15616;SDS011;7908;51.688;7.130;2023-02-15T04:44:24;32.87;;;18.23;;
15616;SDS011;7908;51.688;7.130;2023-02-15T04:46:52;30.03;;;16.03;;
15616;SDS011;7908;51.688;7.130;2023-02-15T04:49:21;30.60;;;16.97;;
15616;SDS011;7908;51.688;7.130;2023-02-15T04:51:50;27.70;;;16.50;;
15616;SDS011;7908;51.688;7.130;2023-02-15T04:54:20;31.50;;;16.63;;
15616;SDS011;7908;51.688;7.130;2023-02-15T04:56:48;31.40;;;18.10;;
15616;SDS011;7908;51.688;7.130;2023-02-15T04:59:17;33.33;;;17.73;;
15616;SDS011;7908;51.688;7.130;2023-02-15T05:01:46;36.70;;;18.30;;
15616;SDS011;7908;51.688;7.130;2023-02-15T05:04:14;37.27;;;18.57;;
15616;SDS011;7908;51.688;7.130;2023-02-15T05:06:43;32.83;;;18.60;;
15616;SDS011;7908;51.688;7.130;2023-02-15T05:09:12;35.93;;;18.47;;
15616;SDS011;7908;51.688;7.130;2023-02-15T05:11:42;30.60;;;17.13;;
15616;SDS011;7908;51.688;7.130;2023-02-15T05:14:11;28.10;;;14.93;;
15616;SDS011;7908;51.688;7.130;2023-02-15T05:16:41;31.03;;;16.70;;
15616;SDS011;7908;51.688;7.130;2023-02-15T05:19:10;32.40;;;17.13;;
15616;SDS011;7908;51.688;7.130;2023-02-15T05:21:39;27.30;;;16.13;;
15616;SDS011;7908;51.688;7.130;2023-02-15T05:24:07;29.03;;;16.90;;
15616;SDS011;7908;51.688;7.130;2023-02-15T05:26:51;27.77;;;15.10;;
15616;SDS011;7908;51.688;7.130;2023-02-15T05:29:37;30.07;;;16.97;;
15616;SDS011;7908;51.688;7.130;2023-02-15T05:32:06;31.10;;;17.13;;
15616;SDS011;7908;51.688;7.130;2023-02-15T05:34:34;30.27;;;15.47;;
15616;SDS011;7908;51.688;7.130;2023-02-15T05:37:03;25.57;;;15.10;;
15616;SDS011;7908;51.688;7.130;2023-02-15T05:39:31;31.53;;;15.80;;
15616;SDS011;7908;51.688;7.130;2023-02-15T05:42:02;26.53;;;13.63;;
15616;SDS011;7908;51.688;7.130;2023-02-15T05:44:30;33.63;;;17.50;;
15616;SDS011;7908;51.688;7.130;2023-02-15T05:46:59;33.10;;;16.63;;
15616;SDS011;7908;51.688;7.130;2023-02-15T05:49:29;27.80;;;15.97;;
15616;SDS011;7908;51.688;7.130;2023-02-15T05:51:58;32.20;;;17.00;;
15616;SDS011;7908;51.688;7.130;2023-02-15T05:54:26;34.83;;;19.23;;
15616;SDS011;7908;51.688;7.130;2023-02-15T05:56:55;35.13;;;18.80;;
15616;SDS011;7908;51.688;7.130;2023-02-15T05:59:26;35.57;;;18.27;;
15616;SDS011;7908;51.688;7.130;2023-02-15T06:01:54;38.20;;;19.07;;
15616;SDS011;7908;51.688;7.130;2023-02-15T06:04:23;35.10;;;18.40;;
15616;SDS011;7908;51.688;7.130;2023-02-15T06:06:52;34.70;;;17.37;;
15616;SDS011;7908;51.688;7.130;2023-02-15T06:09:20;35.30;;;17.17;;
15616;SDS011;7908;51.688;7.130;2023-02-15T06:11:49;34.90;;;17.13;;
15616;SDS011;7908;51.688;7.130;2023-02-15T06:14:17;30.57;;;16.13;;
15616;SDS011;7908;51.688;7.130;2023-02-15T06:16:47;38.57;;;18.13;;
15616;SDS011;7908;51.688;7.130;2023-02-15T06:19:16;31.00;;;16.50;;
15616;SDS011;7908;51.688;7.130;2023-02-15T06:21:45;30.20;;;17.03;;
15616;SDS011;7908;51.688;7.130;2023-02-15T06:24:14;29.93;;;16.20;;
15616;SDS011;7908;51.688;7.130;2023-02-15T06:26:42;30.37;;;16.60;;
15616;SDS011;7908;51.688;7.130;2023-02-15T06:29:11;27.93;;;14.73;;
15616;SDS011;7908;51.688;7.130;2023-02-15T06:31:40;35.23;;;18.70;;
15616;SDS011;7908;51.688;7.130;2023-02-15T06:34:10;35.83;;;18.47;;
15616;SDS011;7908;51.688;7.130;2023-02-15T06:36:39;32.77;;;16.50;;
15616;SDS011;7908;51.688;7.130;2023-02-15T06:39:10;30.90;;;16.33;;
15616;SDS011;7908;51.688;7.130;2023-02-15T06:41:39;32.53;;;17.30;;
15616;SDS011;7908;51.688;7.130;2023-02-15T06:44:07;39.37;;;18.87;;
15616;SDS011;7908;51.688;7.130;2023-02-15T06:46:36;35.00;;;18.00;;
15616;SDS011;7908;51.688;7.130;2023-02-15T06:49:07;34.13;;;17.00;;
15616;SDS011;7908;51.688;7.130;2023-02-15T06:51:37;36.83;;;17.90;;
15616;SDS011;7908;51.688;7.130;2023-02-15T06:54:05;30.07;;;15.93;;
15616;SDS011;7908;51.688;7.130;2023-02-15T06:56:34;33.50;;;16.77;;
15616;SDS011;7908;51.688;7.130;2023-02-15T06:59:02;33.03;;;18.10;;
15616;SDS011;7908;51.688;7.130;2023-02-15T07:01:31;42.47;;;20.43;;
15616;SDS011;7908;51.688;7.130;2023-02-15T07:04:00;31.97;;;17.47;;
15616;SDS011;7908;51.688;7.130;2023-02-15T07:06:30;31.47;;;16.57;;
15616;SDS011;7908;51.688;7.130;2023-02-15T07:09:00;32.87;;;16.27;;
15616;SDS011;7908;51.688;7.130;2023-02-15T07:11:29;32.47;;;17.20;;
15616;SDS011;7908;51.688;7.130;2023-02-15T07:14:15;30.17;;;15.37;;
15616;SDS011;7908;51.688;7.130;2023-02-15T07:16:46;33.80;;;17.53;;
15616;SDS011;7908;51.688;7.130;2023-02-15T07:19:15;36.83;;;17.27;;
15616;SDS011;7908;51.688;7.130;2023-02-15T07:21:44;34.90;;;18.60;;
15616;SDS011;7908;51.688;7.130;2023-02-15T07:24:14;44.93;;;22.67;;
15616;SDS011;7908;51.688;7.130;2023-02-15T07:26:44;44.00;;;20.23;;
15616;SDS011;7908;51.688;7.130;2023-02-15T07:29:13;39.73;;;19.03;;
15616;SDS011;7908;51.688;7.130;2023-02-15T07:31:42;28.67;;;16.53;;
15616;SDS011;7908;51.688;7.130;2023-02-15T07:34:11;34.50;;;18.80;;
15616;SDS011;7908;51.688;7.130;2023-02-15T07:36:40;31.17;;;16.50;;
15616;SDS011;7908;51.688;7.130;2023-02-15T07:39:10;41.40;;;20.20;;
15616;SDS011;7908;51.688;7.130;2023-02-15T07:41:40;38.70;;;19.40;;
15616;SDS011;7908;51.688;7.130;2023-02-15T07:44:10;38.33;;;19.53;;
15616;SDS011;7908;51.688;7.130;2023-02-15T07:46:40;44.63;;;21.93;;
15616;SDS011;7908;51.688;7.130;2023-02-15T07:49:09;48.80;;;24.17;;
15616;SDS011;7908;51.688;7.130;2023-02-15T07:51:38;49.73;;;25.63;;
15616;SDS011;7908;51.688;7.130;2023-02-15T07:54:07;46.80;;;24.30;;
15616;SDS011;7908;51.688;7.130;2023-02-15T07:56:36;49.20;;;24.87;;
15616;SDS011;7908;51.688;7.130;2023-02-15T07:59:07;53.53;;;24.97;;
15616;SDS011;7908;51.688;7.130;2023-02-15T08:01:37;45.30;;;23.03;;
15616;SDS011;7908;51.688;7.130;2023-02-15T08:04:07;44.93;;;22.20;;
15616;SDS011;7908;51.688;7.130;2023-02-15T08:06:37;49.90;;;25.37;;
15616;SDS011;7908;51.688;7.130;2023-02-15T08:09:07;59.93;;;27.73;;
15616;SDS011;7908;51.688;7.130;2023-02-15T08:11:37;60.03;;;25.40;;
15616;SDS011;7908;51.688;7.130;2023-02-15T08:14:09;58.97;;;26.43;;
15616;SDS011;7908;51.688;7.130;2023-02-15T08:16:39;45.00;;;24.13;;
15616;SDS011;7908;51.688;7.130;2023-02-15T08:19:09;48.90;;;26.07;;
15616;SDS011;7908;51.688;7.130;2023-02-15T08:21:40;48.03;;;23.97;;
15616;SDS011;7908;51.688;7.130;2023-02-15T08:24:09;52.70;;;28.40;;
15616;SDS011;7908;51.688;7.130;2023-02-15T08:26:39;49.47;;;26.67;;
15616;SDS011;7908;51.688;7.130;2023-02-15T08:29:15;42.33;;;23.43;;
15616;SDS011;7908;51.688;7.130;2023-02-15T08:31:45;50.00;;;26.63;;
15616;SDS011;7908;51.688;7.130;2023-02-15T08:34:15;52.03;;;27.00;;
15616;SDS011;7908;51.688;7.130;2023-02-15T08:36:45;47.97;;;26.87;;
15616;SDS011;7908;51.688;7.130;2023-02-15T08:39:14;56.10;;;28.00;;
15616;SDS011;7908;51.688;7.130;2023-02-15T08:41:44;50.93;;;26.97;;
15616;SDS011;7908;51.688;7.130;2023-02-15T08:44:15;50.10;;;28.17;;
15616;SDS011;7908;51.688;7.130;2023-02-15T08:46:47;50.10;;;28.33;;
15616;SDS011;7908;51.688;7.130;2023-02-15T08:49:17;49.03;;;27.63;;
15616;SDS011;7908;51.688;7.130;2023-02-15T08:51:47;42.97;;;26.77;;
15616;SDS011;7908;51.688;7.130;2023-02-15T08:54:18;52.03;;;31.27;;
15616;SDS011;7908;51.688;7.130;2023-02-15T08:56:48;50.37;;;27.67;;
15616;SDS011;7908;51.688;7.130;2023-02-15T08:59:19;51.50;;;30.73;;
15616;SDS011;7908;51.688;7.130;2023-02-15T09:01:49;49.67;;;30.90;;
15616;SDS011;7908;51.688;7.130;2023-02-15T09:04:19;55.60;;;30.27;;
15616;SDS011;7908;51.688;7.130;2023-02-15T09:06:49;51.23;;;28.70;;
15616;SDS011;7908;51.688;7.130;2023-02-15T09:09:19;53.47;;;29.63;;
15616;SDS011;7908;51.688;7.130;2023-02-15T09:11:49;50.07;;;30.10;;
15616;SDS011;7908;51.688;7.130;2023-02-15T09:14:26;45.83;;;30.03;;
15616;SDS011;7908;51.688;7.130;2023-02-15T09:16:54;47.57;;;31.67;;
15616;SDS011;7908;51.688;7.130;2023-02-15T09:19:24;48.13;;;31.00;;
15616;SDS011;7908;51.688;7.130;2023-02-15T09:21:53;51.20;;;31.83;;
15616;SDS011;7908;51.688;7.130;2023-02-15T09:24:22;50.00;;;33.23;;
15616;SDS011;7908;51.688;7.130;2023-02-15T09:26:50;49.23;;;31.27;;
15616;SDS011;7908;51.688;7.130;2023-02-15T09:29:19;45.47;;;30.33;;
15616;SDS011;7908;51.688;7.130;2023-02-15T09:31:50;48.03;;;30.90;;
15616;SDS011;7908;51.688;7.130;2023-02-15T09:34:20;51.63;;;32.93;;
15616;SDS011;7908;51.688;7.130;2023-02-15T09:36:50;49.63;;;32.90;;
15616;SDS011;7908;51.688;7.130;2023-02-15T09:39:19;45.60;;;32.10;;
15616;SDS011;7908;51.688;7.130;2023-02-15T09:42:01;45.23;;;30.67;;
15616;SDS011;7908;51.688;7.130;2023-02-15T09:45:00;48.17;;;32.50;;
15616;SDS011;7908;51.688;7.130;2023-02-15T09:47:56;52.43;;;36.20;;
15616;SDS011;7908;51.688;7.130;2023-02-15T09:50:50;58.67;;;39.03;;
15616;SDS011;7908;51.688;7.130;2023-02-15T09:53:36;65.63;;;39.03;;
15616;SDS011;7908;51.688;7.130;2023-02-15T09:56:19;64.07;;;40.93;;
15616;SDS011;7908;51.688;7.130;2023-02-15T09:58:56;68.20;;;43.67;;
15616;SDS011;7908;51.688;7.130;2023-02-15T10:01:34;57.97;;;38.37;;
15616;SDS011;7908;51.688;7.130;2023-02-15T10:04:27;55.97;;;38.07;;
15616;SDS011;7908;51.688;7.130;2023-02-15T10:07:07;54.57;;;38.10;;
15616;SDS011;7908;51.688;7.130;2023-02-15T10:09:49;51.33;;;36.33;;
15616;SDS011;7908;51.688;7.130;2023-02-15T10:12:32;47.10;;;34.60;;
15616;SDS011;7908;51.688;7.130;2023-02-15T10:15:16;49.63;;;32.90;;
15616;SDS011;7908;51.688;7.130;2023-02-15T10:18:05;45.10;;;31.37;;
15616;SDS011;7908;51.688;7.130;2023-02-15T10:20:52;47.23;;;30.70;;
15616;SDS011;7908;51.688;7.130;2023-02-15T10:23:34;41.97;;;28.20;;
15616;SDS011;7908;51.688;7.130;2023-02-15T10:26:19;42.80;;;28.57;;
15616;SDS011;7908;51.688;7.130;2023-02-15T10:28:50;37.97;;;27.50;;
15616;SDS011;7908;51.688;7.130;2023-02-15T10:31:25;36.93;;;26.73;;
15616;SDS011;7908;51.688;7.130;2023-02-15T10:34:09;41.53;;;26.80;;
15616;SDS011;7908;51.688;7.130;2023-02-15T10:36:53;37.33;;;26.70;;
15616;SDS011;7908;51.688;7.130;2023-02-15T10:39:46;41.43;;;28.07;;
15616;SDS011;7908;51.688;7.130;2023-02-15T10:42:24;44.30;;;28.20;;
15616;SDS011;7908;51.688;7.130;2023-02-15T10:45:05;42.83;;;28.77;;
15616;SDS011;7908;51.688;7.130;2023-02-15T10:47:48;37.83;;;25.37;;
15616;SDS011;7908;51.688;7.130;2023-02-15T10:50:34;42.67;;;28.03;;
15616;SDS011;7908;51.688;7.130;2023-02-15T10:53:16;35.97;;;25.77;;
15616;SDS011;7908;51.688;7.130;2023-02-15T10:56:00;39.07;;;27.20;;
15616;SDS011;7908;51.688;7.130;2023-02-15T10:58:39;36.63;;;25.50;;
15616;SDS011;7908;51.688;7.130;2023-02-15T11:01:19;37.50;;;27.43;;
15616;SDS011;7908;51.688;7.130;2023-02-15T11:04:06;36.83;;;26.73;;
15616;SDS011;7908;51.688;7.130;2023-02-15T11:06:52;39.80;;;26.87;;
15616;SDS011;7908;51.688;7.130;2023-02-15T11:09:35;33.27;;;24.50;;
15616;SDS011;7908;51.688;7.130;2023-02-15T11:12:11;36.33;;;26.33;;
15616;SDS011;7908;51.688;7.130;2023-02-15T11:14:46;44.03;;;28.07;;
15616;SDS011;7908;51.688;7.130;2023-02-15T11:17:21;40.00;;;25.30;;
15616;SDS011;7908;51.688;7.130;2023-02-15T11:19:57;37.17;;;24.97;;
15616;SDS011;7908;51.688;7.130;2023-02-15T11:22:31;34.87;;;24.80;;
15616;SDS011;7908;51.688;7.130;2023-02-15T11:25:05;32.50;;;23.23;;
15616;SDS011;7908;51.688;7.130;2023-02-15T11:27:47;29.23;;;21.50;;
15616;SDS011;7908;51.688;7.130;2023-02-15T11:30:21;31.77;;;20.90;;
15616;SDS011;7908;51.688;7.130;2023-02-15T11:32:52;28.53;;;20.70;;
15616;SDS011;7908;51.688;7.130;2023-02-15T11:35:25;27.53;;;20.73;;
15616;SDS011;7908;51.688;7.130;2023-02-15T11:37:58;29.40;;;21.07;;
15616;SDS011;7908;51.688;7.130;2023-02-15T11:40:36;28.20;;;20.90;;
15616;SDS011;7908;51.688;7.130;2023-02-15T11:43:12;29.63;;;20.00;;
15616;SDS011;7908;51.688;7.130;2023-02-15T11:45:45;30.63;;;19.73;;
15616;SDS011;7908;51.688;7.130;2023-02-15T11:48:15;29.00;;;20.33;;
15616;SDS011;7908;51.688;7.130;2023-02-15T11:50:44;28.30;;;20.07;;
15616;SDS011;7908;51.688;7.130;2023-02-15T11:53:14;31.63;;;21.57;;
15616;SDS011;7908;51.688;7.130;2023-02-15T11:55:47;26.20;;;19.33;;
15616;SDS011;7908;51.688;7.130;2023-02-15T11:58:22;25.30;;;18.77;;
15616;SDS011;7908;51.688;7.130;2023-02-15T12:00:57;25.73;;;17.87;;
15616;SDS011;7908;51.688;7.130;2023-02-15T12:03:33;26.37;;;18.27;;
15616;SDS011;7908;51.688;7.130;2023-02-15T12:06:18;41.77;;;18.00;;
15616;SDS011;7908;51.688;7.130;2023-02-15T12:09:00;24.90;;;17.30;;
15616;SDS011;7908;51.688;7.130;2023-02-15T12:11:36;22.33;;;15.97;;
15616;SDS011;7908;51.688;7.130;2023-02-15T12:14:12;25.33;;;16.10;;
15616;SDS011;7908;51.688;7.130;2023-02-15T12:16:44;27.30;;;17.47;;
15616;SDS011;7908;51.688;7.130;2023-02-15T12:19:27;25.30;;;17.27;;
15616;SDS011;7908;51.688;7.130;2023-02-15T12:21:59;27.20;;;17.37;;
15616;SDS011;7908;51.688;7.130;2023-02-15T12:24:30;26.27;;;16.50;;
15616;SDS011;7908;51.688;7.130;2023-02-15T12:27:05;29.20;;;17.53;;
15616;SDS011;7908;51.688;7.130;2023-02-15T12:29:42;25.90;;;15.97;;
15616;SDS011;7908;51.688;7.130;2023-02-15T12:32:16;25.90;;;16.37;;
15616;SDS011;7908;51.688;7.130;2023-02-15T12:34:47;23.67;;;15.87;;
15616;SDS011;7908;51.688;7.130;2023-02-15T12:37:19;22.03;;;14.63;;
15616;SDS011;7908;51.688;7.130;2023-02-15T12:39:52;22.67;;;14.43;;
15616;SDS011;7908;51.688;7.130;2023-02-15T12:42:24;26.50;;;13.50;;
15616;SDS011;7908;51.688;7.130;2023-02-15T12:44:56;21.63;;;13.77;;
15616;SDS011;7908;51.688;7.130;2023-02-15T12:47:27;22.03;;;12.97;;
15616;SDS011;7908;51.688;7.130;2023-02-15T12:52:46;17.80;;;11.80;;
15616;SDS011;7908;51.688;7.130;2023-02-15T12:55:19;21.20;;;13.17;;
15616;SDS011;7908;51.688;7.130;2023-02-15T13:00:48;19.40;;;11.90;;
15616;SDS011;7908;51.688;7.130;2023-02-15T13:03:31;21.20;;;12.57;;
15616;SDS011;7908;51.688;7.130;2023-02-15T13:06:01;22.87;;;13.80;;
15616;SDS011;7908;51.688;7.130;2023-02-15T13:08:34;21.27;;;12.93;;
15616;SDS011;7908;51.688;7.130;2023-02-15T13:11:07;19.43;;;12.03;;
15616;SDS011;7908;51.688;7.130;2023-02-15T13:13:50;21.13;;;13.03;;
15616;SDS011;7908;51.688;7.130;2023-02-15T13:16:25;20.53;;;11.63;;
15616;SDS011;7908;51.688;7.130;2023-02-15T13:19:02;19.23;;;11.90;;
15616;SDS011;7908;51.688;7.130;2023-02-15T13:21:35;22.77;;;12.80;;
15616;SDS011;7908;51.688;7.130;2023-02-15T13:24:12;18.80;;;11.50;;
15616;SDS011;7908;51.688;7.130;2023-02-15T13:26:45;18.03;;;10.87;;
15616;SDS011;7908;51.688;7.130;2023-02-15T13:29:22;18.53;;;11.30;;
15616;SDS011;7908;51.688;7.130;2023-02-15T13:31:54;17.40;;;10.77;;
15616;SDS011;7908;51.688;7.130;2023-02-15T13:34:25;20.80;;;11.53;;
15616;SDS011;7908;51.688;7.130;2023-02-15T13:37:00;16.10;;;10.77;;
15616;SDS011;7908;51.688;7.130;2023-02-15T13:39:36;17.00;;;10.97;;
15616;SDS011;7908;51.688;7.130;2023-02-15T13:42:13;17.57;;;11.23;;
15616;SDS011;7908;51.688;7.130;2023-02-15T13:45:02;19.83;;;10.90;;
15616;SDS011;7908;51.688;7.130;2023-02-15T13:47:48;20.60;;;11.70;;
15616;SDS011;7908;51.688;7.130;2023-02-15T13:50:29;20.53;;;12.03;;
15616;SDS011;7908;51.688;7.130;2023-02-15T13:53:21;24.67;;;12.40;;
15616;SDS011;7908;51.688;7.130;2023-02-15T13:56:12;22.90;;;11.73;;
15616;SDS011;7908;51.688;7.130;2023-02-15T13:58:57;20.70;;;12.47;;
15616;SDS011;7908;51.688;7.130;2023-02-15T14:01:39;22.10;;;11.87;;
15616;SDS011;7908;51.688;7.130;2023-02-15T14:04:22;21.60;;;11.60;;
15616;SDS011;7908;51.688;7.130;2023-02-15T14:07:10;19.97;;;11.63;;
15616;SDS011;7908;51.688;7.130;2023-02-15T14:09:54;23.07;;;12.00;;
15616;SDS011;7908;51.688;7.130;2023-02-15T14:12:42;19.90;;;11.50;;
15616;SDS011;7908;51.688;7.130;2023-02-15T14:15:23;18.90;;;11.90;;
15616;SDS011;7908;51.688;7.130;2023-02-15T14:18:07;21.83;;;12.63;;
15616;SDS011;7908;51.688;7.130;2023-02-15T14:20:45;20.27;;;11.70;;
15616;SDS011;7908;51.688;7.130;2023-02-15T14:23:27;19.47;;;11.67;;
15616;SDS011;7908;51.688;7.130;2023-02-15T14:26:06;20.00;;;12.20;;
15616;SDS011;7908;51.688;7.130;2023-02-15T14:28:42;19.47;;;12.80;;
15616;SDS011;7908;51.688;7.130;2023-02-15T14:31:29;23.50;;;12.60;;
15616;SDS011;7908;51.688;7.130;2023-02-15T14:34:04;18.43;;;11.90;;
15616;SDS011;7908;51.688;7.130;2023-02-15T14:36:33;19.90;;;12.37;;
15616;SDS011;7908;51.688;7.130;2023-02-15T14:39:06;19.77;;;12.80;;
15616;SDS011;7908;51.688;7.130;2023-02-15T14:41:58;21.40;;;13.53;;
15616;SDS011;7908;51.688;7.130;2023-02-15T14:44:35;22.93;;;13.80;;
15616;SDS011;7908;51.688;7.130;2023-02-15T14:47:07;21.03;;;12.47;;
15616;SDS011;7908;51.688;7.130;2023-02-15T14:49:41;23.43;;;13.10;;
15616;SDS011;7908;51.688;7.130;2023-02-15T14:52:10;22.63;;;13.17;;
15616;SDS011;7908;51.688;7.130;2023-02-15T14:54:52;20.70;;;12.37;;
15616;SDS011;7908;51.688;7.130;2023-02-15T14:57:25;20.57;;;12.47;;
15616;SDS011;7908;51.688;7.130;2023-02-15T15:00:01;19.80;;;12.30;;
15616;SDS011;7908;51.688;7.130;2023-02-15T15:02:52;21.70;;;11.83;;
15616;SDS011;7908;51.688;7.130;2023-02-15T15:05:23;18.83;;;11.73;;
15616;SDS011;7908;51.688;7.130;2023-02-15T15:07:58;17.37;;;11.67;;
15616;SDS011;7908;51.688;7.130;2023-02-15T15:10:40;19.43;;;11.87;;
15616;SDS011;7908;51.688;7.130;2023-02-15T15:16:24;22.70;;;12.90;;
15616;SDS011;7908;51.688;7.130;2023-02-15T15:19:11;19.43;;;11.40;;
15616;SDS011;7908;51.688;7.130;2023-02-15T15:22:19;19.70;;;12.03;;
15616;SDS011;7908;51.688;7.130;2023-02-15T15:24:53;21.80;;;12.30;;
15616;SDS011;7908;51.688;7.130;2023-02-15T15:33:46;19.20;;;11.77;;
15616;SDS011;7908;51.688;7.130;2023-02-15T15:46:07;22.43;;;13.37;;